< < Back
Terminal Aerodrome Forecast


Current Version              Previous Versions:   1  2  3  4  5  6  7  8  9  

Terminal Aerodrome Forecast

269
FTUS42 KGSP 231700
TAFAND
TAF
KAND 231739Z 2318/2418 04010G16KT P6SM BKN030
     FM232000 04008KT P6SM BKN035
     FM240100 04006KT P6SM SCT030
     FM241400 04010KT P6SM SCT040=



Latest METAR

121
SAUS70 KWBC 240000 RRA
MTRAND
METAR KAND 232356Z AUTO 05007KT 10SM BKN110 16/12 A3026 RMK AO2 SLP242
T01560117 10206 20156 53000


USA.gov is the U.S. government's official web portal to all federal, state and local government web resources and services.